Time;durP1;ratioP1;P1;durP2;ratioP2;P2;SDS_P1;SDS_P2;PMS_P1;PMS_P2;Temp;Humidity;BMP_temperature;BMP_pressure;BME280_temperature;BME280_humidity;BME280_pressure;Samples;Min_cycle;Max_cycle;Signal;HPM_P1;HPM_P2
2022/03/25 00:01:53;;;;;;;58.33;35.13;;;;;;;4.34;62.73;101265.50;10380918;28;20526;-68
2022/03/25 00:06:55;;;;;;;53.58;33.22;;;;;;;3.95;64.30;101264.09;10381713;28;20050;-66
2022/03/25 00:11:57;;;;;;;55.25;33.58;;;;;;;3.86;64.75;101264.84;10381454;28;20045;-66
2022/03/25 00:16:58;;;;;;;55.03;34.53;;;;;;;3.89;64.32;101256.19;10379889;28;20400;-67
2022/03/25 00:22:00;;;;;;;59.30;36.35;;;;;;;4.01;63.71;101254.66;10379465;28;20050;-67
2022/03/25 00:27:02;;;;;;;52.53;33.33;;;;;;;3.52;65.05;101261.69;10379926;28;20046;-67
2022/03/25 00:32:05;;;;;;;44.20;32.08;;;;;;;3.31;65.03;101261.31;10378283;28;20104;-67
2022/03/25 00:37:06;;;;;;;42.50;30.48;;;;;;;3.33;65.49;101250.97;10378100;28;20080;-68
2022/03/25 00:42:09;;;;;;;48.35;31.85;;;;;;;3.23;65.93;101247.31;10377978;28;20530;-66
2022/03/25 00:47:12;;;;;;;52.75;33.33;;;;;;;3.07;66.07;101248.78;10377369;28;20038;-67
2022/03/25 00:52:14;;;;;;;50.88;33.33;;;;;;;3.14;66.48;101249.75;10380459;28;20341;-67
2022/03/25 00:57:17;;;;;;;54.22;34.35;;;;;;;3.06;66.64;101252.22;10378451;28;20046;-67
2022/03/25 01:02:25;;;;;;;54.28;34.50;;;;;;;3.05;66.67;101253.06;10380184;28;20042;-67
2022/03/25 01:07:27;;;;;;;54.70;35.15;;;;;;;3.13;67.30;101250.59;10378862;28;20231;-67
2022/03/25 01:12:28;;;;;;;46.10;31.90;;;;;;;2.87;67.74;101248.41;10378471;28;20049;-68
2022/03/25 01:17:30;;;;;;;50.17;33.63;;;;;;;2.96;67.89;101251.16;10376787;28;20053;-68
2022/03/25 01:22:32;;;;;;;59.55;34.80;;;;;;;2.91;68.12;101246.75;10377220;28;20045;-68
2022/03/25 01:27:34;;;;;;;58.60;35.88;;;;;;;2.84;67.98;101248.34;10379508;28;20049;-67
2022/03/25 01:32:37;;;;;;;50.78;33.70;;;;;;;2.90;67.94;101251.06;10376822;28;20096;-67
2022/03/25 01:37:39;;;;;;;52.33;33.92;;;;;;;3.01;67.69;101254.75;10377177;28;20046;-67
2022/03/25 01:42:41;;;;;;;54.65;34.45;;;;;;;2.92;68.04;101245.88;10375980;28;20566;-67
2022/03/25 01:47:45;;;;;;;51.67;34.17;;;;;;;2.80;69.08;101248.28;10376310;28;20042;-67
2022/03/25 01:52:50;;;;;;;58.47;33.97;;;;;;;2.65;69.88;101254.03;10376377;28;20178;-67
2022/03/25 01:57:55;;;;;;;51.03;32.00;;;;;;;2.74;68.84;101241.22;10376033;28;20046;-68
2022/03/25 02:02:58;;;;;;;56.90;34.33;;;;;;;2.55;69.68;101242.59;10378221;28;20463;-67
2022/03/25 02:07:59;;;;;;;45.92;30.85;;;;;;;2.22;70.10;101246.25;10378416;28;20125;-67
2022/03/25 02:13:02;;;;;;;47.60;30.80;;;;;;;2.26;70.29;101252.38;10375980;28;20132;-68
2022/03/25 02:18:07;;;;;;;40.60;31.05;;;;;;;2.14;71.13;101245.19;10376257;28;20517;-67
2022/03/25 02:23:09;;;;;;;51.80;31.73;;;;;;;2.44;70.59;101234.59;10376232;28;20125;-68
2022/03/25 02:28:12;;;;;;;50.30;32.95;;;;;;;2.28;70.49;101233.38;10359489;28;20038;-67
2022/03/25 02:33:16;;;;;;;53.13;32.78;;;;;;;2.26;70.33;101234.22;10378489;28;20046;-67
2022/03/25 02:38:23;;;;;;;47.03;29.23;;;;;;;1.88;70.71;101251.50;10384113;28;20415;-67
2022/03/25 02:43:24;;;;;;;53.40;31.10;;;;;;;1.80;71.56;101255.63;10384239;28;20132;-67
2022/03/25 02:48:46;;;;;;;46.50;30.77;;;;;;;1.83;72.12;101254.00;10383079;28;20056;-67
2022/03/25 02:53:48;;;;;;;48.30;30.65;;;;;;;1.97;71.45;101255.19;10381756;28;20077;-69
2022/03/25 02:58:50;;;;;;;48.38;31.98;;;;;;;1.68;71.87;101249.34;10380374;28;20049;-69
2022/03/25 03:03:53;;;;;;;45.88;31.60;;;;;;;1.67;72.53;101249.28;10380169;28;20491;-70
2022/03/25 03:08:56;;;;;;;46.22;31.23;;;;;;;1.83;72.09;101251.41;10378551;28;20454;-69
2022/03/25 03:13:59;;;;;;;49.05;32.47;;;;;;;1.68;71.79;101254.53;10379744;28;20045;-68
2022/03/25 03:19:00;;;;;;;48.03;32.03;;;;;;;1.66;72.45;101250.13;10379830;28;20046;-69
2022/03/25 03:24:02;;;;;;;52.45;33.00;;;;;;;1.48;72.77;101251.44;10379302;28;20042;-69
2022/03/25 03:29:04;;;;;;;47.50;30.80;;;;;;;1.49;73.54;101252.31;10379523;28;20057;-69
2022/03/25 03:34:10;;;;;;;47.17;31.83;;;;;;;1.74;72.40;101252.06;10378224;28;20060;-68
2022/03/25 03:39:11;;;;;;;50.15;32.63;;;;;;;1.31;73.41;101251.84;10377869;28;20046;-69
2022/03/25 03:44:13;;;;;;;46.42;31.67;;;;;;;1.43;73.70;101262.53;10376577;28;20403;-69
2022/03/25 03:49:15;;;;;;;51.22;32.38;;;;;;;1.41;73.54;101256.41;10378821;28;20103;-71
2022/03/25 03:54:16;;;;;;;52.50;32.40;;;;;;;1.13;73.76;101260.03;10377441;28;20046;-70
2022/03/25 03:59:18;;;;;;;61.35;33.13;;;;;;;1.20;73.94;101261.97;10378402;28;20049;-69
2022/03/25 04:04:20;;;;;;;51.70;31.45;;;;;;;1.18;73.80;101269.66;10378546;28;20104;-68
2022/03/25 04:09:21;;;;;;;52.58;31.95;;;;;;;1.41;73.92;101275.44;10378124;28;20516;-69
2022/03/25 04:14:23;;;;;;;52.63;32.97;;;;;;;1.46;73.89;101275.53;10378188;28;20433;-68
2022/03/25 04:19:24;;;;;;;57.58;31.58;;;;;;;1.48;73.91;101279.06;10378112;28;20076;-70
2022/03/25 04:24:26;;;;;;;57.03;31.90;;;;;;;1.23;75.34;101283.59;10378470;28;20144;-68
2022/03/25 04:29:27;;;;;;;61.15;34.20;;;;;;;1.14;75.82;101278.19;10377975;28;20045;-68
2022/03/25 04:34:29;;;;;;;58.58;35.55;;;;;;;1.40;74.70;101276.28;10377568;28;20096;-70
2022/03/25 04:39:30;;;;;;;52.92;32.55;;;;;;;1.46;74.06;101280.72;10376369;28;20042;-68
2022/03/25 04:44:32;;;;;;;55.30;33.25;;;;;;;1.25;75.24;101281.94;10375829;28;20042;-69
2022/03/25 04:49:34;;;;;;;57.67;32.45;;;;;;;1.34;74.67;101286.50;10377772;28;20045;-69
2022/03/25 04:54:36;;;;;;;46.55;31.70;;;;;;;1.08;74.61;101284.94;10375337;28;20077;-70
2022/03/25 04:59:38;;;;;;;56.10;32.15;;;;;;;0.80;75.65;101291.06;10374146;28;20077;-68
2022/03/25 05:04:39;;;;;;;61.28;33.75;;;;;;;0.98;76.06;101289.88;10377711;28;20045;-70
2022/03/25 05:09:41;;;;;;;64.47;32.90;;;;;;;1.16;75.62;101296.38;10377274;28;20077;-70
2022/03/25 05:14:43;;;;;;;54.05;33.05;;;;;;;1.14;75.26;101298.91;10377213;28;20045;-68
2022/03/25 05:19:45;;;;;;;56.80;33.72;;;;;;;1.16;75.26;101311.91;10377294;28;20467;-70
2022/03/25 05:24:46;;;;;;;58.67;33.65;;;;;;;1.33;74.92;101308.06;10377680;28;20125;-68
2022/03/25 05:29:48;;;;;;;67.97;33.92;;;;;;;1.28;75.55;101309.63;10376058;28;20037;-70
2022/03/25 05:34:50;;;;;;;68.38;35.03;;;;;;;1.12;76.25;101318.72;10376580;28;20054;-69
2022/03/25 05:39:52;;;;;;;48.95;32.45;;;;;;;1.05;76.60;101319.38;10376633;28;20065;-69
2022/03/25 05:44:54;;;;;;;46.80;31.58;;;;;;;1.20;76.68;101330.16;10377150;28;20554;-70
2022/03/25 05:49:55;;;;;;;52.80;32.30;;;;;;;1.38;76.10;101334.97;10376001;28;20407;-69
2022/03/25 05:54:57;;;;;;;57.95;33.05;;;;;;;1.44;74.91;101342.88;10357623;28;20479;-68
2022/03/25 05:59:59;;;;;;;73.43;38.95;;;;;;;1.64;74.13;101358.06;10375129;28;20100;-69
2022/03/25 06:05:13;;;;;;;53.03;32.67;;;;;;;1.93;72.98;101354.50;10375450;28;20125;-70
2022/03/25 06:10:16;;;;;;;51.67;31.17;;;;;;;2.60;70.81;101351.69;10380406;28;20042;-69
2022/03/25 06:15:17;;;;;;;38.63;25.52;;;;;;;4.34;64.73;101356.59;10382940;28;20050;-69
2022/03/25 06:20:24;;;;;;;41.38;24.67;;;;;;;5.17;60.35;101348.16;10382749;28;20038;-68
2022/03/25 06:25:26;;;;;;;27.83;24.80;;;;;;;5.95;57.90;101349.81;10381976;28;20050;-69
2022/03/25 06:30:33;;;;;;;30.77;23.33;;;;;;;6.02;56.54;101359.47;10381128;28;20046;-69
2022/03/25 06:35:36;;;;;;;27.63;24.98;;;;;;;6.07;55.88;101357.75;10382478;28;20136;-69
2022/03/25 06:40:38;;;;;;;50.03;26.42;;;;;;;5.89;55.95;101354.97;10381385;28;20054;-69
2022/03/25 06:45:39;;;;;;;27.55;24.52;;;;;;;5.62;57.56;101349.47;10381839;28;20495;-69
2022/03/25 06:50:41;;;;;;;37.38;27.27;;;;;;;5.29;58.93;101345.69;10382184;28;20042;-68
2022/03/25 06:55:44;;;;;;;37.92;27.73;;;;;;;5.22;59.85;101357.78;10383197;28;20042;-70
2022/03/25 07:00:46;;;;;;;32.47;28.25;;;;;;;5.11;60.69;101353.28;10381580;28;20133;-69
2022/03/25 07:05:51;;;;;;;37.85;27.55;;;;;;;5.44;59.49;101348.44;10384800;28;20084;-69
2022/03/25 07:10:53;;;;;;;46.35;28.42;;;;;;;5.48;59.50;101362.38;10382741;28;20037;-68
2022/03/25 07:15:55;;;;;;;51.42;29.52;;;;;;;5.51;58.49;101358.06;10382123;28;20084;-68
2022/03/25 07:20:59;;;;;;;38.60;27.83;;;;;;;5.98;58.55;101356.81;10381093;28;20492;-70
2022/03/25 07:26:04;;;;;;;34.05;27.65;;;;;;;6.22;57.72;101363.94;10383130;28;20046;-65
2022/03/25 07:31:08;;;;;;;29.90;25.98;;;;;;;6.31;57.38;101374.44;10381127;28;20495;-67
2022/03/25 07:36:10;;;;;;;41.60;27.05;;;;;;;6.50;55.77;101370.22;10380932;28;20518;-68
2022/03/25 07:41:12;;;;;;;35.67;27.05;;;;;;;6.53;56.38;101365.88;10381788;28;20488;-69
2022/03/25 07:46:13;;;;;;;39.53;26.85;;;;;;;6.88;55.18;101364.34;10382267;28;20054;-67
2022/03/25 07:51:15;;;;;;;47.00;27.63;;;;;;;7.16;55.01;101371.41;10380604;28;20408;-67
2022/03/25 07:56:17;;;;;;;48.55;28.33;;;;;;;7.28;54.12;101378.44;10381305;28;20045;-67
2022/03/25 08:01:18;;;;;;;36.85;27.23;;;;;;;7.45;53.93;101374.13;10380892;28;20046;-67
2022/03/25 08:06:20;;;;;;;34.85;27.48;;;;;;;7.28;53.96;101383.66;10381190;28;20054;-69
2022/03/25 08:11:22;;;;;;;47.95;28.25;;;;;;;7.60;53.35;101386.38;10381921;28;20056;-67
2022/03/25 08:16:23;;;;;;;42.35;27.88;;;;;;;7.95;52.42;101396.88;10380581;28;20460;-68
2022/03/25 08:21:25;;;;;;;44.72;28.08;;;;;;;8.17;52.46;101394.28;10380516;28;20069;-68
2022/03/25 08:31:47;;;;;;;48.78;29.67;;;;;;;8.91;50.18;101395.06;10378008;28;20046;-68
2022/03/25 08:36:50;;;;;;;36.33;29.10;;;;;;;9.26;50.29;101393.19;10379260;28;20053;-68
2022/03/25 08:41:51;;;;;;;41.30;27.90;;;;;;;9.51;49.39;101388.66;10379227;28;20053;-68
2022/03/25 08:46:53;;;;;;;43.20;28.85;;;;;;;10.13;47.74;101393.47;10379476;28;20412;-68
2022/03/25 08:51:54;;;;;;;38.47;27.08;;;;;;;10.82;45.51;101397.22;10375888;28;20514;-68
2022/03/25 08:56:56;;;;;;;39.33;25.85;;;;;;;11.18;43.64;101394.19;10391473;23;20108;-68
2022/03/25 09:01:57;;;;;;;29.42;26.00;;;;;;;10.67;42.79;101396.50;10378332;28;20069;-69
2022/03/25 09:07:00;;;;;;;32.55;26.95;;;;;;;11.32;43.44;101400.13;10377686;28;20367;-70
2022/03/25 09:12:02;;;;;;;36.78;26.42;;;;;;;12.16;41.06;101398.06;10376337;28;20038;-69
2022/03/25 09:17:08;;;;;;;32.63;26.10;;;;;;;12.63;39.50;101387.53;10380156;28;20541;-69
2022/03/25 09:22:10;;;;;;;37.53;26.10;;;;;;;12.57;39.53;101395.59;10379408;28;20074;-69
2022/03/25 09:27:12;;;;;;;32.67;24.42;;;;;;;13.18;37.88;101384.72;10377767;28;20144;-69
2022/03/25 09:32:13;;;;;;;34.00;24.42;;;;;;;12.95;38.22;101393.97;10378774;28;20510;-69
2022/03/25 09:37:22;;;;;;;28.95;25.05;;;;;;;13.58;36.57;101393.53;10381062;28;20144;-69
2022/03/25 09:42:23;;;;;;;36.25;26.17;;;;;;;13.88;36.86;101385.81;10382588;28;20100;-70
2022/03/25 09:47:25;;;;;;;30.73;24.95;;;;;;;14.55;36.54;101392.06;10393570;28;20517;-69
2022/03/25 09:52:29;;;;;;;31.80;24.80;;;;;;;14.56;35.27;101387.63;10393066;28;20450;-69
2022/03/25 09:57:51;;;;;;;28.02;24.45;;;;;;;15.22;34.32;101383.16;10394436;28;20518;-69
2022/03/25 10:02:53;;;;;;;27.83;24.58;;;;;;;15.23;34.73;101382.22;10392503;28;20113;-70
2022/03/25 10:07:55;;;;;;;32.42;25.88;;;;;;;14.80;34.24;101388.78;10392711;28;20049;-70
2022/03/25 10:13:00;;;;;;;36.38;24.40;;;;;;;15.10;33.38;101376.44;10392108;28;20403;-70
2022/03/25 10:18:07;;;;;;;27.33;24.67;;;;;;;15.50;32.77;101375.25;10392689;28;20045;-65
2022/03/25 10:23:11;;;;;;;24.10;21.60;;;;;;;16.08;32.01;101376.06;10390790;28;20124;-66
2022/03/25 10:28:18;;;;;;;24.42;21.88;;;;;;;16.69;30.37;101363.34;10389594;28;20133;-66
2022/03/25 10:33:29;;;;;;;28.27;20.90;;;;;;;16.47;31.52;101365.00;10390122;28;20136;-66
2022/03/25 10:38:54;;;;;;;26.52;20.17;;;;;;;17.13;29.65;101360.84;10389127;28;20095;-67
2022/03/25 10:43:57;;;;;;;23.00;20.48;;;;;;;17.03;30.14;101356.81;10391950;28;20137;-66
2022/03/25 10:49:00;;;;;;;21.40;19.13;;;;;;;16.82;31.77;101359.34;10389606;28;20041;-66
2022/03/25 10:54:12;;;;;;;29.95;19.60;;;;;;;17.09;30.88;101360.13;10387420;28;20462;-66
2022/03/25 10:59:29;;;;;;;24.10;19.05;;;;;;;16.93;31.36;101355.44;10384828;28;20042;-68
2022/03/25 11:04:31;;;;;;;23.33;17.80;;;;;;;17.11;30.49;101358.25;10386772;28;20052;-68
2022/03/25 11:09:33;;;;;;;19.38;17.55;;;;;;;17.20;32.59;101361.47;10385349;28;20086;-68
2022/03/25 11:14:35;;;;;;;18.13;16.08;;;;;;;17.73;32.04;101348.75;10385116;28;20100;-69
2022/03/25 11:19:37;;;;;;;20.58;17.80;;;;;;;17.38;30.49;101351.00;10398044;28;20057;-69
2022/03/25 11:24:45;;;;;;;22.08;18.88;;;;;;;17.54;30.04;101345.97;10382880;28;20064;-68
2022/03/25 11:29:51;;;;;;;19.55;17.75;;;;;;;17.70;28.88;101340.00;10384159;28;20050;-69
2022/03/25 11:34:53;;;;;;;20.48;17.45;;;;;;;17.59;29.03;101338.66;10381491;28;20042;-69
2022/03/25 11:40:13;;;;;;;26.27;17.65;;;;;;;17.16;30.34;101328.84;10383271;28;20049;-68
2022/03/25 11:45:20;;;;;;;21.02;18.77;;;;;;;16.88;30.91;101326.38;10383777;28;20042;-70
2022/03/25 11:50:29;;;;;;;23.23;18.25;;;;;;;17.14;30.26;101330.72;10380960;28;20054;-68
2022/03/25 11:56:01;;;;;;;30.65;18.08;;;;;;;17.22;30.68;101318.00;10381748;28;20100;-69
2022/03/25 12:01:16;;;;;;;22.60;18.60;;;;;;;17.25;29.95;101311.69;10379889;28;20041;-69
2022/03/25 12:06:20;;;;;;;19.90;17.88;;;;;;;17.38;29.61;101315.59;10380306;28;20551;-68
2022/03/25 12:11:51;;;;;;;21.17;19.20;;;;;;;16.97;32.63;101315.41;10381625;28;20041;-69
2022/03/25 12:16:55;;;;;;;21.85;19.58;;;;;;;16.68;31.57;101312.94;10381555;28;20042;-68
2022/03/25 12:22:25;;;;;;;18.08;15.15;;;;;;;16.13;30.39;101302.50;10364605;28;20042;-68
2022/03/25 12:27:26;;;;;;;18.40;16.73;;;;;;;15.91;32.09;101306.81;10381220;28;20133;-69
2022/03/25 12:32:32;;;;;;;14.32;13.13;;;;;;;15.69;31.06;101307.50;10379014;28;20057;-69
2022/03/25 12:37:34;;;;;;;18.15;14.85;;;;;;;15.54;31.53;101292.97;10379283;28;20132;-68
2022/03/25 12:42:36;;;;;;;20.92;17.33;;;;;;;15.48;32.41;101287.84;10379309;28;20042;-69
2022/03/25 12:47:43;;;;;;;22.65;17.45;;;;;;;15.35;32.63;101286.50;10379610;28;20077;-69
2022/03/25 12:52:45;;;;;;;;;;;;;;;15.32;32.44;101273.38;10379650;28;20499;-69
2022/03/25 12:57:46;;;;;;;17.02;15.40;;;;;;;15.45;32.47;101277.34;10380672;28;20315;-68
2022/03/25 13:02:48;;;;;;;15.23;13.27;;;;;;;15.30;30.35;101265.44;10378553;28;20042;-69
2022/03/25 13:07:58;;;;;;;18.38;15.10;;;;;;;15.17;31.64;101264.09;10379064;28;20065;-69
2022/03/25 13:13:03;;;;;;;18.85;16.55;;;;;;;15.18;33.42;101267.59;10379937;28;20484;-69
2022/03/25 13:18:07;;;;;;;25.15;19.05;;;;;;;15.18;33.68;101270.25;10379042;28;20064;-69
2022/03/25 13:23:25;;;;;;;19.85;18.00;;;;;;;15.00;33.71;101263.75;10377912;28;20088;-70
2022/03/25 13:28:35;;;;;;;20.48;17.55;;;;;;;15.13;33.75;101260.66;10381331;28;20088;-68
2022/03/25 13:33:56;;;;;;;20.00;18.10;;;;;;;15.18;33.17;101259.66;10377613;28;20487;-69
2022/03/25 13:39:14;;;;;;;18.60;16.75;;;;;;;15.09;33.03;101253.72;10378120;28;20459;-69
2022/03/25 13:44:16;;;;;;;21.25;18.20;;;;;;;15.17;32.71;101255.28;10378641;28;20115;-69
2022/03/25 13:49:18;;;;;;;28.08;17.42;;;;;;;15.11;32.15;101251.06;10376764;28;20053;-68
2022/03/25 13:54:26;;;;;;;27.80;17.00;;;;;;;15.19;31.85;101250.81;10376638;28;20503;-68
2022/03/25 13:59:35;;;;;;;21.38;19.20;;;;;;;15.14;32.95;101249.19;10377331;28;20496;-68
2022/03/25 14:04:39;;;;;;;22.52;20.08;;;;;;;14.88;33.40;101246.47;10380109;28;20450;-69
2022/03/25 14:09:41;;;;;;;24.05;20.20;;;;;;;14.99;33.37;101240.84;10375464;28;20487;-68
2022/03/25 14:14:55;;;;;;;31.10;22.85;;;;;;;14.86;34.06;101240.34;10377235;28;20449;-68
2022/03/25 14:19:59;;;;;;;26.10;23.50;;;;;;;14.97;35.17;101230.31;10376149;28;20068;-69
2022/03/25 14:25:00;;;;;;;35.70;26.13;;;;;;;14.93;35.97;101226.00;10377842;28;20056;-69
2022/03/25 14:30:03;;;;;;;26.70;24.00;;;;;;;15.08;35.79;101227.31;10379924;28;20050;-69
2022/03/25 14:35:05;;;;;;;29.98;24.08;;;;;;;15.11;35.59;101216.63;10384426;28;20054;-66
2022/03/25 14:40:07;;;;;;;31.42;24.20;;;;;;;15.00;35.89;101214.28;10381656;28;20050;-66
2022/03/25 14:45:10;;;;;;;27.27;24.35;;;;;;;15.11;35.70;101212.19;10381802;28;20053;-66
2022/03/25 14:50:13;;;;;;;33.65;24.67;;;;;;;14.86;36.26;101212.09;10385109;28;20124;-66
2022/03/25 14:55:19;;;;;;;26.63;24.00;;;;;;;14.93;36.43;101207.47;10386195;28;20045;-69
2022/03/25 15:00:21;;;;;;;31.05;23.83;;;;;;;14.91;36.56;101208.44;10383141;28;20126;-68
2022/03/25 15:05:23;;;;;;;28.67;24.45;;;;;;;14.78;36.36;101205.28;10397315;28;20046;-69
2022/03/25 15:10:25;;;;;;;25.50;22.90;;;;;;;14.62;36.69;101200.47;10381986;28;20065;-67
2022/03/25 15:15:27;;;;;;;28.52;21.88;;;;;;;14.79;36.38;101199.97;10380824;28;20061;-67
2022/03/25 15:20:29;;;;;;;27.65;23.10;;;;;;;14.84;36.60;101199.81;10382224;28;20038;-67
2022/03/25 15:25:31;;;;;;;24.27;21.98;;;;;;;14.68;36.67;101201.19;10382117;28;20049;-68
2022/03/25 15:35:53;;;;;;;25.60;23.08;;;;;;;14.38;37.77;101203.78;10380905;28;20046;-67
2022/03/25 15:41:15;;;;;;;29.05;23.75;;;;;;;14.53;37.80;101198.09;10380034;28;20443;-67
2022/03/25 15:46:16;;;;;;;28.30;25.50;;;;;;;14.30;37.98;101187.31;10380400;28;20392;-67
2022/03/25 15:51:19;;;;;;;24.92;21.45;;;;;;;14.34;37.83;101189.81;10381472;28;20049;-66
2022/03/25 15:56:21;;;;;;;24.88;19.42;;;;;;;14.29;35.74;101190.81;10379936;28;20081;-67
2022/03/25 16:01:23;;;;;;;21.33;19.42;;;;;;;14.34;36.00;101186.28;10379706;28;20096;-67
2022/03/25 16:06:24;;;;;;;27.90;20.48;;;;;;;14.14;36.30;101192.16;10380748;28;20411;-67
2022/03/25 16:11:27;;;;;;;22.23;19.85;;;;;;;14.08;36.96;101190.53;10380273;28;20046;-67
2022/03/25 16:16:29;;;;;;;24.25;21.77;;;;;;;13.99;36.59;101204.03;10380045;28;20054;-67
2022/03/25 16:21:31;;;;;;;23.25;21.15;;;;;;;13.95;37.39;101202.38;10379649;28;20399;-66
2022/03/25 16:26:33;;;;;;;26.83;21.48;;;;;;;14.00;37.41;101200.47;10377693;28;20148;-67
2022/03/25 16:31:35;;;;;;;23.23;20.33;;;;;;;13.77;37.91;101202.88;10379478;28;20483;-67
2022/03/25 16:36:37;;;;;;;21.92;19.75;;;;;;;13.55;38.35;101197.25;10381123;28;20054;-67
2022/03/25 16:41:38;;;;;;;28.25;21.08;;;;;;;13.56;38.30;101199.84;10379116;28;20049;-66
2022/03/25 16:46:40;;;;;;;25.90;22.30;;;;;;;13.26;39.02;101206.75;10379240;28;20518;-66
2022/03/25 16:52:04;;;;;;;24.45;21.80;;;;;;;13.19;39.25;101193.69;10377752;28;20037;-67
2022/03/25 16:57:06;;;;;;;22.42;20.50;;;;;;;12.95;39.61;101198.66;10378129;28;20053;-67
2022/03/25 17:02:08;;;;;;;24.65;22.45;;;;;;;12.84;39.96;101204.19;10377823;28;20050;-66
2022/03/25 17:07:11;;;;;;;26.13;22.35;;;;;;;12.61;40.59;101201.19;10378684;28;20137;-67
2022/03/25 17:12:12;;;;;;;28.23;23.95;;;;;;;12.49;41.31;101202.31;10376368;28;20136;-66
2022/03/25 17:17:14;;;;;;;36.03;28.65;;;;;;;12.39;42.07;101208.66;10378430;28;20096;-68
2022/03/25 17:22:16;;;;;;;32.88;24.83;;;;;;;12.32;43.01;101207.06;10379180;28;20045;-67
2022/03/25 17:27:19;;;;;;;27.92;22.83;;;;;;;12.13;43.52;101209.22;10377477;28;20054;-69
2022/03/25 17:32:21;;;;;;;26.77;23.73;;;;;;;11.89;44.35;101209.66;10377498;28;20121;-68
2022/03/25 17:37:23;;;;;;;37.33;25.00;;;;;;;12.21;44.57;101209.03;10376799;28;20042;-66
2022/03/25 17:42:26;;;;;;;34.05;24.92;;;;;;;12.00;44.94;101213.84;10377629;28;20096;-68
2022/03/25 17:47:28;;;;;;;33.72;25.00;;;;;;;12.12;44.76;101224.13;10377728;28;20045;-67
2022/03/25 17:52:29;;;;;;;31.77;24.00;;;;;;;12.06;45.21;101233.94;10376895;28;20049;-67
2022/03/25 17:57:32;;;;;;;27.95;25.13;;;;;;;11.95;45.42;101231.47;10376725;28;20080;-68
2022/03/25 18:02:34;;;;;;;28.23;24.17;;;;;;;11.84;45.71;101238.72;10376670;28;20381;-67
2022/03/25 18:07:42;;;;;;;35.03;25.38;;;;;;;11.71;46.16;101248.56;10384389;28;20077;-67
2022/03/25 18:12:44;;;;;;;34.38;26.27;;;;;;;11.61;46.17;101247.88;10367154;28;20050;-67
2022/03/25 18:17:46;;;;;;;41.28;26.40;;;;;;;11.61;46.23;101255.78;10384439;28;20056;-68
2022/03/25 18:22:47;;;;;;;45.42;27.58;;;;;;;11.50;46.75;101257.69;10384517;28;20070;-67
2022/03/25 18:27:49;;;;;;;39.30;27.67;;;;;;;11.47;46.50;101256.91;10384651;28;20129;-67
2022/03/25 18:32:51;;;;;;;45.53;27.85;;;;;;;11.29;47.25;101263.31;10383733;28;20077;-67
2022/03/25 18:37:56;;;;;;;35.97;26.52;;;;;;;11.09;47.98;101263.59;10384662;28;20085;-67
2022/03/25 18:43:01;;;;;;;44.17;27.98;;;;;;;10.81;48.17;101266.59;10382813;28;20092;-68
2022/03/25 18:48:05;;;;;;;35.22;26.85;;;;;;;10.65;48.99;101272.94;10383557;28;20085;-67
2022/03/25 18:53:07;;;;;;;42.65;26.85;;;;;;;10.56;48.40;101266.03;10381556;28;20427;-68
2022/03/25 18:58:09;;;;;;;45.40;27.25;;;;;;;10.81;48.03;101269.25;10381830;28;20068;-67
2022/03/25 19:03:11;;;;;;;37.63;26.98;;;;;;;10.95;47.46;101271.69;10380957;28;20041;-67
2022/03/25 19:08:13;;;;;;;36.95;27.02;;;;;;;10.86;47.70;101272.66;10383796;28;20517;-67
2022/03/25 19:13:15;;;;;;;34.33;25.60;;;;;;;10.76;48.04;101284.22;10381222;28;20050;-67
2022/03/25 19:18:20;;;;;;;33.00;27.48;;;;;;;10.87;48.09;101281.44;10380547;28;20074;-68
2022/03/25 19:23:22;;;;;;;42.40;26.27;;;;;;;10.88;47.87;101275.28;10381590;28;20073;-68
2022/03/25 19:28:24;;;;;;;38.00;25.52;;;;;;;10.74;48.21;101279.84;10382432;28;20072;-68
2022/03/25 19:33:26;;;;;;;40.65;30.35;;;;;;;10.47;49.45;101286.31;10383299;28;20048;-67
2022/03/25 19:38:27;;;;;;;57.10;32.47;;;;;;;10.30;50.59;101283.84;10382236;28;20042;-67
2022/03/25 19:43:30;;;;;;;53.25;30.70;;;;;;;9.96;52.01;101286.81;10382907;28;20056;-66
2022/03/25 19:48:31;;;;;;;47.75;30.60;;;;;;;9.53;52.38;101294.16;10382025;28;20050;-68
2022/03/25 19:53:34;;;;;;;48.17;32.90;;;;;;;9.30;53.26;101294.34;10382139;28;20105;-67
2022/03/25 19:58:36;;;;;;;40.28;28.63;;;;;;;9.05;53.71;101296.22;10381595;28;20038;-67
2022/03/25 20:03:37;;;;;;;41.25;30.45;;;;;;;8.94;53.92;101293.66;10379226;28;20481;-67
2022/03/25 20:08:39;;;;;;;53.42;31.15;;;;;;;8.89;55.22;101295.41;10381040;28;20384;-68
2022/03/25 20:13:47;;;;;;;44.17;31.08;;;;;;;8.77;55.32;101305.97;10382099;28;20072;-66
2022/03/25 20:18:48;;;;;;;46.85;32.08;;;;;;;8.74;55.87;101300.72;10379969;28;20057;-67
2022/03/25 20:23:50;;;;;;;48.22;32.35;;;;;;;8.41;56.04;101314.81;10379560;28;20046;-68
2022/03/25 20:28:52;;;;;;;39.65;29.95;;;;;;;8.29;56.53;101315.69;10379967;28;20049;-67
2022/03/25 20:33:53;;;;;;;41.95;30.88;;;;;;;8.35;57.71;101321.78;10380318;28;20038;-69
2022/03/25 20:38:56;;;;;;;47.45;32.30;;;;;;;8.15;58.10;101325.31;10379361;28;20431;-68
2022/03/25 20:43:57;;;;;;;45.25;30.63;;;;;;;8.12;58.59;101323.56;10379359;28;20088;-67
2022/03/25 20:48:59;;;;;;;52.15;34.03;;;;;;;7.88;59.28;101331.41;10378842;28;20049;-68
2022/03/25 20:54:01;;;;;;;49.33;33.40;;;;;;;8.02;59.59;101333.19;10391339;23;20038;-76
2022/03/25 20:59:02;;;;;;;62.17;34.15;;;;;;;8.09;59.27;101327.03;10360644;28;20415;-76
2022/03/25 21:04:04;;;;;;;55.90;33.20;;;;;;;7.61;59.62;101333.16;10377575;28;20503;-76
2022/03/25 21:09:06;;;;;;;49.90;35.20;;;;;;;7.45;60.79;101337.50;10377471;28;20053;-76
2022/03/25 21:14:08;;;;;;;51.97;34.58;;;;;;;7.52;61.11;101335.75;10375887;28;20125;-76
2022/03/25 21:19:09;;;;;;;66.47;36.10;;;;;;;7.26;60.44;101335.69;10377111;28;20041;-76
2022/03/25 21:24:11;;;;;;;55.13;36.65;;;;;;;7.26;61.49;101343.53;10376361;28;20408;-76
2022/03/25 21:29:13;;;;;;;66.47;37.17;;;;;;;7.29;61.65;101341.81;10376361;28;20048;-75
2022/03/25 21:34:15;;;;;;;60.03;37.60;;;;;;;6.97;62.39;101356.53;10377701;28;20065;-75
2022/03/25 21:39:16;;;;;;;62.88;37.40;;;;;;;6.95;62.25;101356.53;10375926;28;20050;-76
2022/03/25 21:44:18;;;;;;;63.55;37.67;;;;;;;6.80;62.98;101357.31;10377024;28;20048;-76
2022/03/25 21:49:21;;;;;;;66.75;37.13;;;;;;;6.51;63.80;101364.16;10374924;28;20054;-75
2022/03/25 21:54:22;;;;;;;58.95;37.40;;;;;;;6.65;64.35;101364.22;10377010;28;20046;-76
2022/03/25 21:59:24;;;;;;;64.97;39.15;;;;;;;6.61;64.99;101362.47;10375077;28;20149;-76
2022/03/25 22:04:27;;;;;;;64.78;38.85;;;;;;;6.42;64.83;101369.28;10376062;28;20041;-76
2022/03/25 22:09:29;;;;;;;58.05;36.50;;;;;;;6.26;65.13;101365.72;10374975;28;20442;-76
2022/03/25 22:14:35;;;;;;;63.70;38.20;;;;;;;6.63;64.14;101371.16;10374498;28;20071;-75
2022/03/25 22:19:39;;;;;;;63.00;37.75;;;;;;;6.28;64.48;101375.28;10373956;28;20054;-75
2022/03/25 22:24:43;;;;;;;62.67;37.42;;;;;;;5.98;64.99;101375.09;10373001;28;20042;-75
2022/03/25 22:29:44;;;;;;;68.00;37.28;;;;;;;6.10;66.49;101372.53;10372901;28;20054;-75
2022/03/25 22:34:46;;;;;;;58.20;36.22;;;;;;;5.97;67.05;101368.97;10372895;28;20038;-75
2022/03/25 22:39:48;;;;;;;71.32;40.60;;;;;;;6.22;66.69;101375.25;10374706;28;20423;-75
2022/03/25 22:44:50;;;;;;;71.47;40.60;;;;;;;6.25;65.87;101367.47;10375569;28;20038;-75
2022/03/25 22:49:52;;;;;;;61.60;38.42;;;;;;;5.78;66.42;101370.50;10375596;28;20100;-76
2022/03/25 22:54:55;;;;;;;67.10;39.38;;;;;;;5.95;67.34;101362.88;10365645;28;20042;-74
2022/03/25 22:59:56;;;;;;;59.22;37.15;;;;;;;5.79;67.43;101360.94;10380197;28;20471;-74
2022/03/25 23:04:59;;;;;;;64.10;38.65;;;;;;;5.51;67.77;101365.03;10382096;28;20112;-75